Home > Products > Valid Products > TAF

000
FTUS45 KFGZ 112320
TAFINW
TAF
KINW 112320Z 1200/1224 VRB05KT P6SM SKC=



000
FTUS45 KFGZ 112320
TAFFLG
TAF
KFLG 112320Z 1200/1224 VRB05KT P6SM SKC=



000
FTUS45 KFGZ 112320
TAFPGA
TAF
KPGA 112320Z 1200/1224 VRB03KT P6SM FEW250=



000
FTUS45 KFGZ 112320
TAFINW
TAF
KINW 112320Z 1200/1224 VRB05KT P6SM SKC=



000
FTUS45 KFGZ 112320
TAFFLG
TAF
KFLG 112320Z 1200/1224 VRB05KT P6SM SKC=



000
FTUS45 KFGZ 112320
TAFPGA
TAF
KPGA 112320Z 1200/1224 VRB03KT P6SM FEW250=



000
FTUS45 KFGZ 111720
TAFPGA
TAF
KPGA 111720Z 1118/1218 VRB04KT P6SM FEW250=



000
FTUS45 KFGZ 111720
TAFINW
TAF
KINW 111720Z 1118/1218 VRB05KT P6SM FEW250=



000
FTUS45 KFGZ 111720
TAFFLG
TAF
KFLG 111720Z 1118/1218 VRB05KT P6SM FEW250=



000
FTUS45 KFGZ 111720
TAFFLG
TAF
KFLG 111720Z 1118/1218 VRB05KT P6SM FEW250=



000
FTUS45 KFGZ 111720
TAFPGA
TAF
KPGA 111720Z 1118/1218 VRB04KT P6SM FEW250=



000
FTUS45 KFGZ 111720
TAFINW
TAF
KINW 111720Z 1118/1218 VRB05KT P6SM FEW250=



000
FTUS45 KFGZ 111132
TAFINW
TAF
KINW 111132Z 1112/1212 VRB05KT P6SM FEW250=



000
FTUS45 KFGZ 111132
TAFPGA
TAF
KPGA 111132Z 1112/1212 VRB05KT P6SM FEW250=



000
FTUS45 KFGZ 111132
TAFFLG
TAF
KFLG 111132Z 1112/1212 VRB05KT P6SM FEW250=



000
FTUS45 KFGZ 111132
TAFINW
TAF
KINW 111132Z 1112/1212 VRB05KT P6SM FEW250=



000
FTUS45 KFGZ 111132
TAFPGA
TAF
KPGA 111132Z 1112/1212 VRB05KT P6SM FEW250=



000
FTUS45 KFGZ 111132
TAFFLG
TAF
KFLG 111132Z 1112/1212 VRB05KT P6SM FEW250=



000
FTUS45 KFGZ 110532
TAFPGA
TAF
KPGA 110532Z 1106/1206 VRB03KT P6SM FEW250=



000
FTUS45 KFGZ 110532
TAFINW
TAF
KINW 110532Z 1106/1206 VRB05KT P6SM FEW250=



000
FTUS45 KFGZ 110532
TAFPGA
TAF
KPGA 110532Z 1106/1206 VRB03KT P6SM FEW250=



000
FTUS45 KFGZ 110532
TAFFLG
TAF
KFLG 110532Z 1106/1206 VRB05KT P6SM FEW250=



000
FTUS45 KFGZ 110532
TAFFLG
TAF
KFLG 110532Z 1106/1206 VRB05KT P6SM FEW250=



000
FTUS45 KFGZ 110532
TAFINW
TAF
KINW 110532Z 1106/1206 VRB05KT P6SM FEW250=



000
FTUS45 KFGZ 102320
TAFINW
TAF
KINW 102320Z 1100/1124 VRB05KT P6SM FEW250=



000
FTUS45 KFGZ 102320
TAFPGA
TAF
KPGA 102320Z 1100/1124 VRB03KT P6SM SCT250=



000
FTUS45 KFGZ 102320
TAFINW
TAF
KINW 102320Z 1100/1124 VRB05KT P6SM FEW250=



000
FTUS45 KFGZ 102320
TAFFLG
TAF
KFLG 102320Z 1100/1124 VRB05KT P6SM SCT250=



000
FTUS45 KFGZ 102320
TAFPGA
TAF
KPGA 102320Z 1100/1124 VRB03KT P6SM SCT250=



000
FTUS45 KFGZ 102320
TAFFLG
TAF
KFLG 102320Z 1100/1124 VRB05KT P6SM SCT250=



000
FTUS45 KFGZ 101752
TAFINW
TAF
KINW 101752Z 1018/1118 VRB05KT P6SM FEW250=



000
FTUS45 KFGZ 101752
TAFFLG
TAF
KFLG 101752Z 1018/1118 VRB05KT P6SM SCT250=



000
FTUS45 KFGZ 101752
TAFPGA
TAF
KPGA 101752Z 1018/1118 VRB03KT P6SM SCT250=



000
FTUS45 KFGZ 101752
TAFPGA
TAF
KPGA 101752Z 1018/1118 VRB03KT P6SM SCT250=



000
FTUS45 KFGZ 101752
TAFFLG
TAF
KFLG 101752Z 1018/1118 VRB05KT P6SM SCT250=



000
FTUS45 KFGZ 101752
TAFINW
TAF
KINW 101752Z 1018/1118 VRB05KT P6SM FEW250=



000
FTUS45 KFGZ 101130
TAFFLG
TAF
KFLG 101130Z 1012/1112 VRB05KT P6SM FEW250=



000
FTUS45 KFGZ 101130
TAFPGA
TAF
KPGA 101130Z 1012/1112 VRB03KT P6SM FEW250=



000
FTUS45 KFGZ 101130
TAFINW
TAF
KINW 101130Z 1012/1112 VRB05KT P6SM SKC=



000
FTUS45 KFGZ 101130
TAFINW
TAF
KINW 101130Z 1012/1112 VRB05KT P6SM SKC=



000
FTUS45 KFGZ 101130
TAFPGA
TAF
KPGA 101130Z 1012/1112 VRB03KT P6SM FEW250=



000
FTUS45 KFGZ 101130
TAFFLG
TAF
KFLG 101130Z 1012/1112 VRB05KT P6SM FEW250=



000
FTUS45 KFGZ 100537
TAFFLG
TAF
KFLG 100537Z 1006/1106 VRB05KT P6SM SKC=



000
FTUS45 KFGZ 100537
TAFINW
TAF
KINW 100537Z 1006/1106 VRB04KT P6SM SKC=



000
FTUS45 KFGZ 100537
TAFPGA
TAF
KPGA 100537Z 1006/1106 VRB02KT P6SM SKC=



000
FTUS45 KFGZ 100537
TAFPGA
TAF
KPGA 100537Z 1006/1106 VRB02KT P6SM SKC=



000
FTUS45 KFGZ 100537
TAFFLG
TAF
KFLG 100537Z 1006/1106 VRB05KT P6SM SKC=



000
FTUS45 KFGZ 100537
TAFINW
TAF
KINW 100537Z 1006/1106 VRB04KT P6SM SKC=



000
FTUS45 KFGZ 092320
TAFPGA
TAF
KPGA 092320Z 1000/1024 VRB05KT P6SM SKC=



000
FTUS45 KFGZ 092320
TAFFLG
TAF
KFLG 092320Z 1000/1024 07011G17KT P6SM SKC
     FM100100 VRB05KT P6SM SKC=



000
FTUS45 KFGZ 092320
TAFINW
TAF
KINW 092320Z 1000/1024 VRB05KT P6SM SKC=



000
FTUS45 KFGZ 091720
TAFPGA
TAF
KPGA 091720Z 0918/1018 04005KT P6SM SKC
     FM100100 VRB05KT P6SM SKC=



000
FTUS45 KFGZ 091720
TAFPGA
TAF
KPGA 091720Z 0918/1018 04005KT P6SM SKC
     FM100100 VRB05KT P6SM SKC=



000
FTUS45 KFGZ 091720
TAFINW
TAF
KINW 091720Z 0918/1018 33005KT P6SM SKC
     FM100200 VRB05KT P6SM SKC=



000
FTUS45 KFGZ 091720
TAFINW
TAF
KINW 091720Z 0918/1018 33005KT P6SM SKC
     FM100200 VRB05KT P6SM SKC=



000
FTUS45 KFGZ 091720
TAFFLG
TAF
KFLG 091720Z 0918/1018 07012G18KT P6SM SKC
     FM100100 VRB05KT P6SM SKC=



000
FTUS45 KFGZ 091720
TAFFLG
TAF
KFLG 091720Z 0918/1018 07012G18KT P6SM SKC
     FM100100 VRB05KT P6SM SKC=



000
FTUS45 KFGZ 091136
TAFINW
TAF
KINW 091136Z 0912/1012 VRB05KT P6SM SKC=



000
FTUS45 KFGZ 091136
TAFPGA
TAF
KPGA 091136Z 0912/1012 VRB05KT P6SM SKC=



000
FTUS45 KFGZ 091136
TAFFLG
TAF
KFLG 091136Z 0912/1012 07011KT P6SM SKC
     FM091630 07012G18KT P6SM SKC
     FM100100 VRB05KT P6SM SKC=



000
FTUS45 KFGZ 091136
TAFFLG
TAF
KFLG 091136Z 0912/1012 07011KT P6SM SKC
     FM091630 07012G18KT P6SM SKC
     FM100100 VRB05KT P6SM SKC=



000
FTUS45 KFGZ 091136
TAFINW
TAF
KINW 091136Z 0912/1012 VRB05KT P6SM SKC=



000
FTUS45 KFGZ 091136
TAFPGA
TAF
KPGA 091136Z 0912/1012 VRB05KT P6SM SKC=



000
FTUS45 KFGZ 090529
TAFFLG
TAF
KFLG 090529Z 0906/1006 07008KT P6SM SKC
     FM091630 07012G20KT P6SM SKC
     FM100100 VRB04KT P6SM SKC=



000
FTUS45 KFGZ 090529
TAFINW
TAF
KINW 090529Z 0906/1006 VRB05KT P6SM SKC=



000
FTUS45 KFGZ 090529
TAFPGA
TAF
KPGA 090529Z 0906/1006 VRB04KT P6SM SKC=



    US Dept of Commerce
    National Oceanic and Atmospheric Administration
    National Weather Service
    1325 East West Highway
    Silver Spring, MD 20910
    Page Author: NWS Internet Services Team
Disclaimer
Information Quality
Credits
Glossary
Privacy Policy
Freedom of Information Act (FOIA)
About Us
Career Opportunities